Time;durP1;ratioP1;P1;durP2;ratioP2;P2;SDS_P1;SDS_P2;PMS_P1;PMS_P2;Temp;Humidity;BMP_temperature;BMP_pressure;BME280_temperature;BME280_humidity;BME280_pressure;Samples;Min_cycle;Max_cycle;Signal;HPM_P1;HPM_P2
2022/09/16 00:02:01;;;;;;;5.40;2.90;;;;;;;;;;4356540;32;60356;-61
2022/09/16 00:04:48;;;;;;;5.57;3.22;;;;;;;;;;4355741;32;69232;-61
2022/09/16 00:07:35;;;;;;;3.95;2.85;;;;;;;;;;4355908;32;69300;-60
2022/09/16 00:10:22;;;;;;;4.07;2.90;;;;;;;;;;4344770;32;67489;-60
2022/09/16 00:13:09;;;;;;;4.75;3.35;;;;;;;;;;4355734;32;71591;-60
2022/09/16 00:15:56;;;;;;;4.68;3.08;;;;;;;;;;4366570;32;66000;-60
2022/09/16 00:18:42;;;;;;;3.42;2.85;;;;;;;;;;4366521;32;68261;-60
2022/09/16 00:21:30;;;;;;;4.30;3.05;;;;;;;;;;4355925;32;66686;-59
2022/09/16 00:24:17;;;;;;;4.87;3.35;;;;;;;;;;4355702;32;71749;-59
2022/09/16 00:27:03;;;;;;;4.40;3.00;;;;;;;;;;4366136;32;64980;-60
2022/09/16 00:29:50;;;;;;;5.78;3.12;;;;;;;;;;4355729;32;67881;-60
2022/09/16 00:32:37;;;;;;;5.05;3.20;;;;;;;;;;4356245;32;59913;-61
2022/09/16 00:35:23;;;;;;;3.30;2.70;;;;;;;;;;4366188;32;70625;-61
2022/09/16 00:38:10;;;;;;;4.35;2.90;;;;;;;;;;4355700;32;69545;-59
2022/09/16 00:40:57;;;;;;;6.47;3.10;;;;;;;;;;4355883;32;67941;-60
2022/09/16 00:43:55;;;;;;;4.32;2.80;;;;;;;;;;4366266;32;58888;-60
2022/09/16 00:46:44;;;;;;;4.32;2.80;;;;;;;;;;4344661;32;69648;-61
2022/09/16 00:49:31;;;;;;;4.37;3.05;;;;;;;;;;4365992;32;69386;-60
2022/09/16 00:52:18;;;;;;;3.72;2.85;;;;;;;;;;4355584;32;67704;-60
2022/09/16 00:55:08;;;;;;;5.32;3.15;;;;;;;;;;4355299;32;71585;-61
2022/09/16 00:57:57;;;;;;;5.05;2.92;;;;;;;;;;4367265;32;66160;-60
2022/09/16 01:00:44;;;;;;;4.22;2.70;;;;;;;;;;4345146;32;67047;-60
2022/09/16 01:03:32;;;;;;;4.25;3.00;;;;;;;;;;4365975;32;60292;-59
2022/09/16 01:06:19;;;;;;;4.40;2.80;;;;;;;;;;4365850;32;70660;-60
2022/09/16 01:09:06;;;;;;;3.65;2.90;;;;;;;;;;4355536;32;66256;-60
2022/09/16 01:11:52;;;;;;;3.35;2.62;;;;;;;;;;4365423;32;66872;-60
2022/09/16 01:14:52;;;;;;;3.92;2.65;;;;;;;;;;4366301;32;60373;-60
2022/09/16 01:18:00;;;;;;;4.55;3.17;;;;;;;;;;4356621;32;69217;-60
2022/09/16 01:20:55;;;;;;;3.92;2.75;;;;;;;;;;4365701;32;68867;-60
2022/09/16 01:24:04;;;;;;;4.87;3.37;;;;;;;;;;4365652;32;67590;-60
2022/09/16 01:27:14;;;;;;;4.78;3.17;;;;;;;;;;4366872;32;71522;-60
2022/09/16 01:30:04;;;;;;;3.78;2.72;;;;;;;;;;4365547;32;66740;-60
2022/09/16 01:33:17;;;;;;;4.03;3.10;;;;;;;;;;4365487;32;68270;-60
2022/09/16 01:36:13;;;;;;;5.53;3.17;;;;;;;;;;4366793;32;67595;-61
2022/09/16 01:39:08;;;;;;;3.60;2.75;;;;;;;;;;4355406;32;72148;-60
2022/09/16 01:42:05;;;;;;;7.43;3.40;;;;;;;;;;4357529;32;65650;-59
2022/09/16 01:45:07;;;;;;;3.95;3.12;;;;;;;;;;4368040;32;67757;-61
2022/09/16 01:48:10;;;;;;;4.07;3.05;;;;;;;;;;4368266;32;59050;-59
2022/09/16 01:51:03;;;;;;;5.37;3.53;;;;;;;;;;4357471;32;70408;-60
2022/09/16 01:53:54;;;;;;;6.87;3.72;;;;;;;;;;4369162;32;68521;-60
2022/09/16 01:56:45;;;;;;;5.45;3.40;;;;;;;;;;4347050;32;67832;-59
2022/09/16 01:59:44;;;;;;;4.87;3.50;;;;;;;;;;4357754;32;60207;-61
2022/09/16 02:02:55;;;;;;;6.05;3.30;;;;;;;;;;4368012;32;69656;-60
2022/09/16 02:05:56;;;;;;;4.18;3.20;;;;;;;;;;4369313;32;68303;-59
2022/09/16 02:09:02;;;;;;;6.00;3.53;;;;;;;;;;4368156;32;66695;-60
2022/09/16 02:11:50;;;;;;;4.55;3.12;;;;;;;;;;4356650;32;72821;-60
2022/09/16 02:14:41;;;;;;;5.03;3.28;;;;;;;;;;4368410;32;65702;-60
2022/09/16 02:17:31;;;;;;;4.75;3.30;;;;;;;;;;4357407;32;67771;-61
2022/09/16 02:20:21;;;;;;;4.55;3.03;;;;;;;;;;4357004;32;59930;-60
2022/09/16 02:23:28;;;;;;;5.20;3.53;;;;;;;;;;4357460;32;70702;-60
2022/09/16 02:26:17;;;;;;;4.97;3.50;;;;;;;;;;4369112;32;65084;-60
2022/09/16 02:29:10;;;;;;;5.20;3.87;;;;;;;;;;4368068;32;67867;-59
2022/09/16 02:31:59;;;;;;;5.95;3.92;;;;;;;;;;4367816;32;60091;-60
2022/09/16 02:34:48;;;;;;;5.47;3.87;;;;;;;;;;4357331;32;69640;-60
2022/09/16 02:38:08;;;;;;;5.57;3.80;;;;;;;;;;4335920;32;67161;-60
2022/09/16 02:41:00;;;;;;;5.85;3.80;;;;;;;;;;4367555;32;66657;-60
2022/09/16 02:43:47;;;;;;;6.22;3.80;;;;;;;;;;4367178;32;71828;-61
2022/09/16 02:46:47;;;;;;;4.97;3.62;;;;;;;;;;4357029;32;65003;-60
2022/09/16 02:50:10;;;;;;;5.80;4.00;;;;;;;;;;4357046;32;67022;-61
2022/09/16 02:53:00;;;;;;;7.85;3.60;;;;;;;;;;4367505;32;67868;-60
2022/09/16 02:55:58;;;;;;;4.70;3.50;;;;;;;;;;4367880;32;71532;-60
2022/09/16 02:58:45;;;;;;;4.70;3.45;;;;;;;;;;4356785;32;65021;-60
2022/09/16 03:01:35;;;;;;;5.18;3.62;;;;;;;;;;4356751;32;66931;-59
2022/09/16 03:04:22;;;;;;;5.43;3.65;;;;;;;;;;4367281;32;59315;-60
2022/09/16 03:07:10;;;;;;;4.45;3.12;;;;;;;;;;4356555;32;70514;-61
2022/09/16 03:09:57;;;;;;;5.37;3.60;;;;;;;;;;4346231;32;69221;-59
2022/09/16 03:12:50;;;;;;;5.00;3.53;;;;;;;;;;4356479;32;66832;-60
2022/09/16 03:15:52;;;;;;;6.10;3.62;;;;;;;;;;4356655;32;59399;-61
2022/09/16 03:19:14;;;;;;;4.95;3.20;;;;;;;;;;4366920;32;70476;-59
2022/09/16 03:22:02;;;;;;;5.15;3.40;;;;;;;;;;4310358;32;68436;-60
2022/09/16 03:24:58;;;;;;;4.80;3.65;;;;;;;;;;4355776;32;68069;-61
2022/09/16 03:27:53;;;;;;;6.05;2.75;;;;;;;;;;4366904;32;71734;-60
2022/09/16 03:30:50;;;;;;;3.58;2.90;;;;;;;;;;4366695;32;64937;-60
2022/09/16 03:33:46;;;;;;;;;;;;;;;;;;4367188;32;66491;-60
2022/09/16 03:36:36;;;;;;;4.32;2.58;;;;;;;;;;4356946;32;59529;-60
2022/09/16 03:39:23;;;;;;;4.95;3.17;;;;;;;;;;4367029;32;70471;-59
2022/09/16 03:42:10;;;;;;;3.85;2.78;;;;;;;;;;4356414;32;65492;-59
2022/09/16 03:44:57;;;;;;;4.40;2.83;;;;;;;;;;4356352;32;67884;-61
2022/09/16 03:47:45;;;;;;;5.75;2.72;;;;;;;;;;4367108;32;60303;-60
2022/09/16 03:50:32;;;;;;;4.32;2.67;;;;;;;;;;4366640;32;70828;-60
2022/09/16 03:53:18;;;;;;;4.10;2.80;;;;;;;;;;4356086;32;69174;-61
2022/09/16 03:56:05;;;;;;;4.03;2.95;;;;;;;;;;4366495;32;67451;-60
2022/09/16 03:58:52;;;;;;;;;;;;;;;;;;4356542;32;70902;-60
2022/09/16 04:01:39;;;;;;;4.20;2.65;;;;;;;;;;4366405;32;66729;-60
2022/09/16 04:04:26;;;;;;;;;;;;;;;;;;4367171;32;67932;-61
2022/09/16 04:07:12;;;;;;;5.70;3.25;;;;;;;;;;4366625;32;67882;-60
2022/09/16 04:09:59;;;;;;;4.18;2.17;;;;;;;;;;4366318;32;71781;-60
2022/09/16 04:12:46;;;;;;;3.35;2.22;;;;;;;;;;4355798;32;66497;-59
2022/09/16 04:15:37;;;;;;;4.47;2.62;;;;;;;;;;4366464;32;67697;-61
2022/09/16 04:18:24;;;;;;;4.37;2.53;;;;;;;;;;4366800;32;60154;-61
2022/09/16 04:21:10;;;;;;;4.15;2.45;;;;;;;;;;4345300;32;69585;-60
2022/09/16 04:23:57;;;;;;;3.85;2.42;;;;;;;;;;4355796;32;69332;-60
2022/09/16 04:26:45;;;;;;;3.25;2.37;;;;;;;;;;4355831;32;67728;-59
2022/09/16 04:29:31;;;;;;;3.87;2.67;;;;;;;;;;4344816;32;71266;-60
2022/09/16 04:32:18;;;;;;;4.25;2.92;;;;;;;;;;4355479;32;70748;-60
2022/09/16 04:35:05;;;;;;;5.43;3.00;;;;;;;;;;4355596;32;69188;-61
2022/09/16 04:37:52;;;;;;;3.95;2.90;;;;;;;;;;4344865;32;68165;-59
2022/09/16 04:40:39;;;;;;;7.10;3.50;;;;;;;;;;4355787;32;71506;-60
2022/09/16 04:43:26;;;;;;;4.45;3.33;;;;;;;;;;4355055;32;66966;-60
2022/09/16 04:46:13;;;;;;;5.03;3.33;;;;;;;;;;4355769;32;67708;-60
2022/09/16 04:49:00;;;;;;;4.47;3.00;;;;;;;;;;4356477;32;59924;-60
2022/09/16 04:51:47;;;;;;;9.18;3.37;;;;;;;;;;4355381;32;71007;-60
2022/09/16 04:54:34;;;;;;;5.28;3.33;;;;;;;;;;4366338;32;69175;-60
2022/09/16 04:57:20;;;;;;;4.53;3.30;;;;;;;;;;4367384;32;67616;-59
2022/09/16 05:00:08;;;;;;;5.53;3.50;;;;;;;;;;4344791;32;57681;-60
2022/09/16 05:02:55;;;;;;;9.30;3.20;;;;;;;;;;4355561;32;70597;-60
2022/09/16 05:05:42;;;;;;;4.80;3.10;;;;;;;;;;4366001;32;68470;-60
2022/09/16 05:08:28;;;;;;;4.43;3.20;;;;;;;;;;4355560;32;67833;-60
2022/09/16 05:11:21;;;;;;;3.92;2.97;;;;;;;;;;4365971;32;71082;-59
2022/09/16 05:14:15;;;;;;;4.50;2.90;;;;;;;;;;4367373;32;64891;-58
2022/09/16 05:17:03;;;;;;;6.97;3.40;;;;;;;;;;4357740;32;68339;-60
2022/09/16 05:19:49;;;;;;;4.45;3.22;;;;;;;;;;4347097;32;59710;-59
2022/09/16 05:22:36;;;;;;;4.90;2.83;;;;;;;;;;4369826;32;70880;-60
2022/09/16 05:25:22;;;;;;;4.20;2.85;;;;;;;;;;4358159;32;66026;-60
2022/09/16 05:28:09;;;;;;;4.78;2.95;;;;;;;;;;4358091;32;68119;-62
2022/09/16 05:31:06;;;;;;;5.20;3.33;;;;;;;;;;4368539;32;58776;-60
2022/09/16 05:34:04;;;;;;;4.55;3.30;;;;;;;;;;4357487;32;71276;-59
2022/09/16 05:36:52;;;;;;;5.05;3.78;;;;;;;;;;4357928;32;68406;-60
2022/09/16 05:39:39;;;;;;;5.82;3.85;;;;;;;;;;4358247;32;67450;-60
2022/09/16 05:42:26;;;;;;;5.87;3.45;;;;;;;;;;4369938;32;71710;-59
2022/09/16 05:45:12;;;;;;;;;;;;;;;;;;4358262;32;70421;-60
2022/09/16 05:47:59;;;;;;;5.50;3.90;;;;;;;;;;4369702;32;69623;-60
2022/09/16 05:50:55;;;;;;;;;;;;;;;;;;4346914;32;68197;-60
2022/09/16 05:53:42;;;;;;;5.90;4.15;;;;;;;;;;4357923;32;70965;-60
2022/09/16 05:56:30;;;;;;;6.20;4.10;;;;;;;;;;4346505;32;64325;-60
2022/09/16 05:59:17;;;;;;;5.10;3.78;;;;;;;;;;4358243;32;67880;-60
2022/09/16 06:02:04;;;;;;;5.05;3.60;;;;;;;;;;4358716;32;59304;-60
2022/09/16 06:04:52;;;;;;;5.50;3.90;;;;;;;;;;4358032;32;70187;-60
2022/09/16 06:07:38;;;;;;;5.62;3.90;;;;;;;;;;4347614;32;69176;-60
2022/09/16 06:10:25;;;;;;;4.53;3.22;;;;;;;;;;4369818;32;67121;-60
2022/09/16 06:13:11;;;;;;;;;;;;;;;;;;4357975;32;60148;-60
2022/09/16 06:15:59;;;;;;;4.75;3.58;;;;;;;;;;4369466;32;69072;-60
2022/09/16 06:18:45;;;;;;;5.97;4.00;;;;;;;;;;4367965;32;69354;-60
2022/09/16 06:21:32;;;;;;;6.57;3.55;;;;;;;;;;4357504;32;67699;-58
2022/09/16 06:24:20;;;;;;;5.22;3.72;;;;;;;;;;4356769;32;71549;-60
2022/09/16 06:27:07;;;;;;;6.22;3.83;;;;;;;;;;4357753;32;65963;-59
2022/09/16 06:29:54;;;;;;;5.78;3.87;;;;;;;;;;4367911;32;67076;-59
2022/09/16 06:32:40;;;;;;;6.82;4.12;;;;;;;;;;4357538;32;59945;-59
2022/09/16 06:35:27;;;;;;;8.10;4.20;;;;;;;;;;4357201;32;71526;-61
2022/09/16 06:38:14;;;;;;;7.28;3.17;;;;;;;;;;4367235;32;66276;-60
2022/09/16 06:41:03;;;;;;;6.07;3.65;;;;;;;;;;4346646;32;68003;-60
2022/09/16 06:43:50;;;;;;;4.95;3.33;;;;;;;;;;4367817;32;59068;-60
2022/09/16 06:46:37;;;;;;;4.32;3.30;;;;;;;;;;4356986;32;70816;-60
2022/09/16 06:49:24;;;;;;;4.87;3.40;;;;;;;;;;4357025;32;69683;-60
2022/09/16 06:52:10;;;;;;;3.90;2.72;;;;;;;;;;4356554;32;68320;-59
2022/09/16 06:54:58;;;;;;;3.85;3.00;;;;;;;;;;4357003;32;70818;-60
2022/09/16 06:57:44;;;;;;;4.72;3.50;;;;;;;;;;4356655;32;67104;-59
2022/09/16 07:00:30;;;;;;;4.50;3.10;;;;;;;;;;4367593;32;69380;-59
2022/09/16 07:03:17;;;;;;;4.40;3.25;;;;;;;;;;4368663;32;67467;-59
2022/09/16 07:06:04;;;;;;;;;;;;;;;;;;4367106;32;72542;-59
2022/09/16 07:08:53;;;;;;;4.72;3.58;;;;;;;;;;4357011;32;65844;-60
2022/09/16 07:11:39;;;;;;;4.43;3.30;;;;;;;;;;4367406;32;67767;-61
2022/09/16 07:14:26;;;;;;;;;;;;;;;;;;4346831;32;61153;-59
2022/09/16 07:17:13;;;;;;;4.70;3.00;;;;;;;;;;4347336;32;70387;-60
2022/09/16 07:20:00;;;;;;;3.40;2.60;;;;;;;;;;4358048;32;69233;-60
2022/09/16 07:22:49;;;;;;;4.22;3.10;;;;;;;;;;4357947;32;67752;-59
2022/09/16 07:25:36;;;;;;;4.70;3.40;;;;;;;;;;4367988;32;60068;-60
2022/09/16 07:28:22;;;;;;;5.00;3.37;;;;;;;;;;4367009;32;70642;-61
2022/09/16 07:31:11;;;;;;;;;;;;;;;;;;4355850;32;70412;-60
2022/09/16 07:34:00;;;;;;;3.72;3.10;;;;;;;;;;4367119;32;67664;-60
2022/09/16 07:36:48;;;;;;;5.22;3.67;;;;;;;;;;4355948;32;71694;-61
2022/09/16 07:39:34;;;;;;;6.97;4.32;;;;;;;;;;4355801;32;65382;-59
2022/09/16 07:42:21;;;;;;;;;;;;;;;;;;4367029;32;67976;-61
2022/09/16 07:45:08;;;;;;;5.00;3.90;;;;;;;;;;4367022;32;59484;-60
2022/09/16 07:47:55;;;;;;;6.20;4.62;;;;;;;;;;4356077;32;70396;-60
2022/09/16 07:50:41;;;;;;;;;;;;;;;;;;4367237;32;64627;-60
2022/09/16 07:53:28;;;;;;;6.95;4.30;;;;;;;;;;4366618;32;67401;-60
2022/09/16 07:56:17;;;;;;;5.30;3.87;;;;;;;;;;4366502;32;58930;-59
2022/09/16 07:59:05;;;;;;;4.75;3.55;;;;;;;;;;4366782;32;69640;-59
2022/09/16 08:01:52;;;;;;;7.68;4.20;;;;;;;;;;4366464;32;69557;-59
2022/09/16 08:04:38;;;;;;;6.87;3.95;;;;;;;;;;4355967;32;67900;-60
2022/09/16 08:07:24;;;;;;;;;;;;;;;;;;4356239;32;71558;-61
2022/09/16 08:10:11;;;;;;;5.82;4.00;;;;;;;;;;4368226;32;65777;-60
2022/09/16 08:12:58;;;;;;;4.43;3.25;;;;;;;;;;4344645;32;72813;-60
2022/09/16 08:15:44;;;;;;;;;;;;;;;;;;4356263;32;66356;-61
2022/09/16 08:18:31;;;;;;;5.82;4.12;;;;;;;;;;4355363;32;71492;-60
2022/09/16 08:21:19;;;;;;;4.78;3.22;;;;;;;;;;4366467;32;66699;-61
2022/09/16 08:24:06;;;;;;;6.20;4.03;;;;;;;;;;4355230;32;68527;-60
2022/09/16 08:26:53;;;;;;;7.53;3.72;;;;;;;;;;4366826;32;60059;-60
2022/09/16 08:29:39;;;;;;;4.18;3.22;;;;;;;;;;4367240;32;69609;-60
2022/09/16 08:32:26;;;;;;;5.72;4.07;;;;;;;;;;4367618;32;69012;-60
2022/09/16 08:35:13;;;;;;;6.20;3.47;;;;;;;;;;4346476;32;66650;-64
2022/09/16 08:38:00;;;;;;;5.00;3.37;;;;;;;;;;4367734;32;59085;-60
2022/09/16 08:40:47;;;;;;;3.67;2.33;;;;;;;;;;4346004;32;71140;-61
2022/09/16 08:43:48;;;;;;;6.05;3.58;;;;;;;;;;4355645;32;69564;-60
2022/09/16 08:46:59;;;;;;;4.65;3.42;;;;;;;;;;4366268;32;67338;-60
2022/09/16 08:49:47;;;;;;;5.75;2.92;;;;;;;;;;4336763;32;72355;-60
2022/09/16 08:52:36;;;;;;;3.47;2.62;;;;;;;;;;4368650;32;65746;-61
2022/09/16 08:55:31;;;;;;;6.05;3.53;;;;;;;;;;4358199;32;67725;-59
2022/09/16 08:58:22;;;;;;;4.43;3.20;;;;;;;;;;4358918;32;60188;-60
2022/09/16 09:01:19;;;;;;;4.55;3.28;;;;;;;;;;4368448;32;70555;-61
2022/09/16 09:04:06;;;;;;;4.82;3.10;;;;;;;;;;4368973;32;66276;-60
2022/09/16 09:07:19;;;;;;;5.15;3.58;;;;;;;;;;4358101;32;68374;-61
2022/09/16 09:10:12;;;;;;;5.70;3.75;;;;;;;;;;4357340;32;61062;-61
2022/09/16 09:13:27;;;;;;;5.37;3.97;;;;;;;;;;4368695;32;69526;-60
2022/09/16 09:16:22;;;;;;;4.35;3.20;;;;;;;;;;4354055;32;69958;-59
2022/09/16 09:19:59;;;;;;;5.28;3.70;;;;;;;;;;4368632;32;66618;-60
2022/09/16 09:23:11;;;;;;;6.28;3.45;;;;;;;;;;4333409;32;72420;-61
2022/09/16 09:26:12;;;;;;;3.92;2.70;;;;;;;;;;3847383;37;43449;-60
2022/09/16 09:29:05;;;;;;;7.68;3.58;;;;;;;;;;4410380;32;59818;-60
2022/09/16 09:31:51;;;;;;;3.90;2.90;;;;;;;;;;4409386;32;70503;-61
2022/09/16 09:35:07;;;;;;;5.00;3.50;;;;;;;;;;4409693;32;69034;-61
2022/09/16 09:38:25;;;;;;;5.18;4.10;;;;;;;;;;4408934;32;68721;-61
2022/09/16 09:41:20;;;;;;;5.80;3.70;;;;;;;;;;4398748;32;70930;-60
2022/09/16 09:44:24;;;;;;;5.37;3.08;;;;;;;;;;4394567;32;64979;-60
2022/09/16 09:47:20;;;;;;;4.47;3.30;;;;;;;;;;4395695;32;67632;-61
2022/09/16 09:50:33;;;;;;;4.68;3.40;;;;;;;;;;4385417;32;60414;-65
2022/09/16 09:53:45;;;;;;;4.68;3.53;;;;;;;;;;4374245;32;70931;-60
2022/09/16 09:56:43;;;;;;;6.65;3.70;;;;;;;;;;4385062;32;66055;-61
2022/09/16 09:59:35;;;;;;;4.40;3.35;;;;;;;;;;4394023;32;67993;-61
2022/09/16 10:02:22;;;;;;;5.03;2.92;;;;;;;;;;4394337;32;60612;-59
2022/09/16 10:05:21;;;;;;;4.95;3.35;;;;;;;;;;4393748;32;70582;-62
2022/09/16 10:08:27;;;;;;;4.60;3.50;;;;;;;;;;4393993;32;69409;-60
2022/09/16 10:11:21;;;;;;;4.87;3.55;;;;;;;;;;4393998;32;68027;-61
2022/09/16 10:14:26;;;;;;;4.45;3.12;;;;;;;;;;4382636;32;72830;-61
2022/09/16 10:17:17;;;;;;;5.00;3.60;;;;;;;;;;4394147;32;65072;-59
2022/09/16 10:20:21;;;;;;;5.07;3.70;;;;;;;;;;4361078;32;69173;-60
2022/09/16 10:23:19;;;;;;;6.47;3.75;;;;;;;;;;4382716;32;68525;-61
2022/09/16 10:26:08;;;;;;;4.70;3.42;;;;;;;;;;4393386;32;70921;-62
2022/09/16 10:29:01;;;;;;;4.03;3.10;;;;;;;;;;4393823;32;64973;-61
2022/09/16 10:31:48;;;;;;;3.92;2.85;;;;;;;;;;4393717;32;66591;-61
2022/09/16 10:34:41;;;;;;;5.03;3.35;;;;;;;;;;4383061;32;59484;-60
2022/09/16 10:37:28;;;;;;;5.53;3.75;;;;;;;;;;4372775;32;70243;-61
2022/09/16 10:40:17;;;;;;;5.75;3.92;;;;;;;;;;4361447;32;70050;-60
2022/09/16 10:43:06;;;;;;;8.38;4.05;;;;;;;;;;4372517;32;66768;-60
2022/09/16 10:45:54;;;;;;;5.07;3.95;;;;;;;;;;4372992;32;59192;-61
2022/09/16 10:48:41;;;;;;;5.87;3.97;;;;;;;;;;4372605;32;69429;-59
2022/09/16 10:51:33;;;;;;;5.05;3.70;;;;;;;;;;4383254;32;68182;-61
2022/09/16 10:54:26;;;;;;;4.53;3.62;;;;;;;;;;4372700;32;67252;-61
2022/09/16 10:57:33;;;;;;;4.82;3.62;;;;;;;;;;4372676;32;70624;-61
2022/09/16 11:00:24;;;;;;;5.43;3.28;;;;;;;;;;4372143;32;65873;-61
2022/09/16 11:03:50;;;;;;;5.68;3.90;;;;;;;;;;4383589;32;67310;-60
2022/09/16 11:06:52;;;;;;;5.60;3.83;;;;;;;;;;4384066;32;60061;-61
2022/09/16 11:10:00;;;;;;;4.40;3.40;;;;;;;;;;4384901;32;69521;-60
2022/09/16 11:12:49;;;;;;;5.43;3.58;;;;;;;;;;4373426;32;65981;-59
2022/09/16 11:16:08;;;;;;;6.57;3.47;;;;;;;;;;4383347;32;66345;-60
2022/09/16 11:19:08;;;;;;;5.03;3.72;;;;;;;;;;4350613;32;60399;-61
2022/09/16 11:21:58;;;;;;;4.82;3.22;;;;;;;;;;4380010;32;70625;-62
2022/09/16 11:24:56;;;;;;;5.15;3.42;;;;;;;;;;4372367;32;68371;-63
2022/09/16 11:27:56;;;;;;;3.67;2.60;;;;;;;;;;4380250;32;66959;-66
2022/09/16 11:31:23;;;;;;;5.18;3.50;;;;;;;;;;4364356;32;72271;-64
2022/09/16 11:34:26;;;;;;;6.35;3.35;;;;;;;;;;4357813;32;65941;-63
2022/09/16 11:37:23;;;;;;;5.65;3.67;;;;;;;;;;4373681;32;67702;-66
2022/09/16 11:40:45;;;;;;;5.78;3.40;;;;;;;;;;4376979;32;67689;-64
2022/09/16 11:43:44;;;;;;;4.75;3.33;;;;;;;;;;4358610;32;71591;-64
2022/09/16 11:46:40;;;;;;;4.43;3.10;;;;;;;;;;4364956;32;66585;-65
2022/09/16 11:49:39;;;;;;;4.93;3.40;;;;;;;;;;4369721;32;68292;-63
2022/09/16 11:52:43;;;;;;;5.60;3.72;;;;;;;;;;4369042;32;60170;-64
2022/09/16 11:55:48;;;;;;;5.25;3.55;;;;;;;;;;4375822;32;69678;-65
2022/09/16 11:59:01;;;;;;;5.35;3.65;;;;;;;;;;4371045;32;67942;-62
2022/09/16 12:02:06;;;;;;;4.45;3.03;;;;;;;;;;4356868;32;67516;-63
2022/09/16 12:05:12;;;;;;;4.82;3.47;;;;;;;;;;4363115;32;60970;-64
2022/09/16 12:08:24;;;;;;;4.28;3.17;;;;;;;;;;4376242;32;69632;-63
2022/09/16 12:11:19;;;;;;;4.60;3.00;;;;;;;;;;4365640;32;69703;-65
2022/09/16 12:14:28;;;;;;;6.80;4.00;;;;;;;;;;4346598;32;68164;-64
2022/09/16 12:17:20;;;;;;;5.07;3.33;;;;;;;;;;4369100;32;71789;-63
2022/09/16 12:20:19;;;;;;;4.53;3.50;;;;;;;;;;4360770;32;66762;-65
2022/09/16 12:23:15;;;;;;;8.35;3.90;;;;;;;;;;4369905;32;66723;-70
2022/09/16 12:26:32;;;;;;;5.22;3.40;;;;;;;;;;4381576;32;59613;-68
2022/09/16 12:29:23;;;;;;;;;;;;;;;;;;4371288;32;71407;-66
2022/09/16 12:32:30;;;;;;;6.95;3.60;;;;;;;;;;4351431;32;66201;-65
2022/09/16 12:35:18;;;;;;;;;;;;;;;;;;4363576;32;67873;-62
2022/09/16 12:38:05;;;;;;;5.15;3.72;;;;;;;;;;4359142;32;60454;-63
2022/09/16 12:41:13;;;;;;;4.85;3.45;;;;;;;;;;4352548;32;70722;-64
2022/09/16 12:44:09;;;;;;;5.20;3.65;;;;;;;;;;4381071;32;69526;-62
2022/09/16 12:47:34;;;;;;;5.37;3.87;;;;;;;;;;4368165;32;67768;-63
2022/09/16 12:50:55;;;;;;;6.30;3.78;;;;;;;;;;4364080;32;70921;-63
2022/09/16 12:54:19;;;;;;;5.70;4.07;;;;;;;;;;4373310;32;65339;-64
2022/09/16 12:57:18;;;;;;;5.80;3.85;;;;;;;;;;4351000;32;67523;-62
2022/09/16 13:00:16;;;;;;;5.70;3.67;;;;;;;;;;4344869;32;68205;-63
2022/09/16 13:03:23;;;;;;;5.65;3.62;;;;;;;;;;4359486;32;70889;-62
2022/09/16 13:06:23;;;;;;;5.95;3.67;;;;;;;;;;4364539;32;64903;-62
2022/09/16 13:09:22;;;;;;;6.70;4.50;;;;;;;;;;4377849;32;67755;-63
2022/09/16 13:12:24;;;;;;;5.47;3.90;;;;;;;;;;4370575;32;59149;-62
2022/09/16 13:15:23;;;;;;;8.35;4.00;;;;;;;;;;4355244;32;71545;-63
2022/09/16 13:18:15;;;;;;;5.85;3.87;;;;;;;;;;4366537;32;69184;-63
2022/09/16 13:21:11;;;;;;;5.62;3.72;;;;;;;;;;4375549;32;66799;-63
2022/09/16 13:24:34;;;;;;;7.18;4.37;;;;;;;;;;4351226;32;71782;-63
2022/09/16 13:27:33;;;;;;;6.05;4.00;;;;;;;;;;4365964;32;70632;-64
2022/09/16 13:30:32;;;;;;;7.00;4.05;;;;;;;;;;4366974;32;69488;-65
2022/09/16 13:33:22;;;;;;;8.75;3.87;;;;;;;;;;4371704;32;67918;-63
2022/09/16 13:36:16;;;;;;;6.40;3.70;;;;;;;;;;4365377;32;72787;-65
2022/09/16 13:39:12;;;;;;;6.18;4.25;;;;;;;;;;4355996;32;66854;-65
2022/09/16 13:42:24;;;;;;;6.47;3.75;;;;;;;;;;4380153;32;66770;-63
2022/09/16 13:45:31;;;;;;;8.63;4.70;;;;;;;;;;4365905;32;60388;-65
2022/09/16 13:48:24;;;;;;;6.35;4.07;;;;;;;;;;4365026;32;71153;-65
2022/09/16 13:51:16;;;;;;;6.72;4.20;;;;;;;;;;4370724;32;69685;-65
2022/09/16 13:54:03;;;;;;;6.12;4.07;;;;;;;;;;4370497;32;67310;-65
2022/09/16 13:57:01;;;;;;;;;;;;;;;;;;4382938;32;60168;-65
2022/09/16 14:00:03;;;;;;;9.38;4.40;;;;;;;;;;4371889;32;69915;-64
2022/09/16 14:03:14;;;;;;;6.60;4.10;;;;;;;;;;4368244;32;69386;-65
2022/09/16 14:06:22;;;;;;;5.25;4.05;;;;;;;;;;4377329;32;67457;-66
2022/09/16 14:09:28;;;;;;;6.45;4.50;;;;;;;;;;4358283;32;72448;-64
2022/09/16 14:12:17;;;;;;;8.25;4.65;;;;;;;;;;4381868;32;64678;-62
2022/09/16 14:15:04;;;;;;;6.93;4.57;;;;;;;;;;4371487;32;67476;-62
2022/09/16 14:17:55;;;;;;;6.32;4.53;;;;;;;;;;4371798;32;60364;-63
2022/09/16 14:21:17;;;;;;;7.07;4.47;;;;;;;;;;4376448;32;71642;-66
2022/09/16 14:24:22;;;;;;;8.27;4.45;;;;;;;;;;4342780;32;66891;-65
2022/09/16 14:27:21;;;;;;;9.80;6.30;;;;;;;;;;4364348;32;68163;-64
2022/09/16 14:30:18;;;;;;;6.87;4.55;;;;;;;;;;4369761;32;58935;-65
2022/09/16 14:33:06;;;;;;;8.27;5.03;;;;;;;;;;4366842;32;73358;-65
2022/09/16 14:35:55;;;;;;;6.85;4.72;;;;;;;;;;4356773;32;68215;-63
2022/09/16 14:38:58;;;;;;;7.30;4.30;;;;;;;;;;4356903;32;67206;-63
2022/09/16 14:41:48;;;;;;;7.05;4.70;;;;;;;;;;4368347;32;70557;-63
2022/09/16 14:44:40;;;;;;;8.07;5.00;;;;;;;;;;4346742;32;71240;-63
2022/09/16 14:47:34;;;;;;;8.90;5.15;;;;;;;;;;4369492;32;68210;-63
2022/09/16 14:50:23;;;;;;;7.95;4.32;;;;;;;;;;4369370;32;67825;-63
2022/09/16 14:53:30;;;;;;;7.20;4.57;;;;;;;;;;4367074;32;70421;-65
2022/09/16 14:56:20;;;;;;;6.90;5.43;;;;;;;;;;4357781;32;65108;-63
2022/09/16 14:59:10;;;;;;;7.87;5.20;;;;;;;;;;4347285;32;67910;-64
2022/09/16 15:02:17;;;;;;;10.80;5.35;;;;;;;;;;4358142;32;60111;-64
2022/09/16 15:05:40;;;;;;;8.27;5.43;;;;;;;;;;4369522;32;70422;-63
2022/09/16 15:08:34;;;;;;;8.07;5.03;;;;;;;;;;4319068;32;68701;-63
2022/09/16 15:11:35;;;;;;;9.43;5.40;;;;;;;;;;4357878;32;68002;-63
2022/09/16 15:14:22;;;;;;;6.72;4.97;;;;;;;;;;4368082;32;59163;-63
2022/09/16 15:17:08;;;;;;;;;;;;;;;;;;4368162;32;70465;-65
2022/09/16 15:19:57;;;;;;;8.90;5.93;;;;;;;;;;4367794;32;69484;-63
2022/09/16 15:22:44;;;;;;;11.88;5.85;;;;;;;;;;4357491;32;67423;-63
2022/09/16 15:25:33;;;;;;;7.47;4.72;;;;;;;;;;4356690;32;71520;-63
2022/09/16 15:28:20;;;;;;;10.40;5.03;;;;;;;;;;4367796;32;65666;-63
2022/09/16 15:31:08;;;;;;;8.63;5.57;;;;;;;;;;4346828;32;67573;-63
2022/09/16 15:33:55;;;;;;;9.73;6.10;;;;;;;;;;4357157;32;59823;-63
2022/09/16 15:36:42;;;;;;;7.85;4.90;;;;;;;;;;4356947;32;70908;-64
2022/09/16 15:39:33;;;;;;;7.57;4.97;;;;;;;;;;4346769;32;64741;-63
2022/09/16 15:42:24;;;;;;;7.57;4.85;;;;;;;;;;4357099;32;68089;-63
2022/09/16 15:45:16;;;;;;;8.18;5.15;;;;;;;;;;4367602;32;60195;-63
2022/09/16 15:48:16;;;;;;;9.10;5.70;;;;;;;;;;4367174;32;69549;-64
2022/09/16 15:51:29;;;;;;;9.05;6.10;;;;;;;;;;4367152;32;69448;-64
2022/09/16 15:54:26;;;;;;;8.18;5.80;;;;;;;;;;4368627;32;66713;-64
2022/09/16 15:57:26;;;;;;;8.30;5.22;;;;;;;;;;4346272;32;72015;-65
2022/09/16 16:00:15;;;;;;;10.57;6.05;;;;;;;;;;4367824;32;65938;-64
2022/09/16 16:03:04;;;;;;;9.13;6.00;;;;;;;;;;4367312;32;69547;-64
2022/09/16 16:05:54;;;;;;;11.68;5.75;;;;;;;;;;4356620;32;67580;-64
2022/09/16 16:08:51;;;;;;;10.80;6.00;;;;;;;;;;4367232;32;71359;-63
2022/09/16 16:11:40;;;;;;;9.52;5.30;;;;;;;;;;4356828;32;65872;-64
2022/09/16 16:14:31;;;;;;;6.82;4.78;;;;;;;;;;4356558;32;68616;-63
2022/09/16 16:17:19;;;;;;;7.87;5.57;;;;;;;;;;4346771;32;59883;-63
2022/09/16 16:20:06;;;;;;;9.18;6.00;;;;;;;;;;4357650;32;70510;-65
2022/09/16 16:22:53;;;;;;;9.65;5.55;;;;;;;;;;4347148;32;69568;-63
2022/09/16 16:25:40;;;;;;;7.18;5.12;;;;;;;;;;4357417;32;67732;-63
2022/09/16 16:28:27;;;;;;;7.07;5.25;;;;;;;;;;4357916;32;59123;-64
2022/09/16 16:31:16;;;;;;;9.82;5.62;;;;;;;;;;4356738;32;70370;-64
2022/09/16 16:34:02;;;;;;;7.50;5.30;;;;;;;;;;4356010;32;69258;-64
2022/09/16 16:36:49;;;;;;;9.27;5.53;;;;;;;;;;4356185;32;67706;-63
2022/09/16 16:39:36;;;;;;;8.27;5.10;;;;;;;;;;4366813;32;70895;-63
2022/09/16 16:42:24;;;;;;;8.25;4.78;;;;;;;;;;4356130;32;65539;-63
2022/09/16 16:45:13;;;;;;;7.37;4.68;;;;;;;;;;4366821;32;66966;-64
2022/09/16 16:48:00;;;;;;;8.52;5.55;;;;;;;;;;4356583;32;59289;-64
2022/09/16 16:51:00;;;;;;;7.93;5.35;;;;;;;;;;4345706;32;70486;-64
2022/09/16 16:53:52;;;;;;;6.62;4.80;;;;;;;;;;4356188;32;65861;-64
2022/09/16 16:56:41;;;;;;;7.82;4.78;;;;;;;;;;4345525;32;68420;-63
2022/09/16 16:59:28;;;;;;;9.52;5.12;;;;;;;;;;4366805;32;59048;-63
2022/09/16 17:02:14;;;;;;;9.23;4.70;;;;;;;;;;4356319;32;69462;-63
2022/09/16 17:05:01;;;;;;;9.27;5.15;;;;;;;;;;4366677;32;68482;-62
2022/09/16 17:07:48;;;;;;;6.82;4.87;;;;;;;;;;4367794;32;67566;-63
2022/09/16 17:10:35;;;;;;;;;;;;;;;;;;4366729;32;70713;-64
2022/09/16 17:13:21;;;;;;;6.15;4.60;;;;;;;;;;4366961;32;65887;-63
2022/09/16 17:16:10;;;;;;;9.15;5.05;;;;;;;;;;4356001;32;69524;-64
2022/09/16 17:18:58;;;;;;;9.15;5.18;;;;;;;;;;4366616;32;67814;-63
2022/09/16 17:21:46;;;;;;;7.20;5.20;;;;;;;;;;4355788;32;72042;-64
2022/09/16 17:24:33;;;;;;;8.65;5.60;;;;;;;;;;4355273;32;67497;-64
2022/09/16 17:27:23;;;;;;;7.37;4.57;;;;;;;;;;4366446;32;67113;-63